createdAt,value
2023-02-28T00:00:19.865Z,3.50
2023-02-28T00:02:46.784Z,3.60
2023-02-28T00:05:15.231Z,3.50
2023-02-28T00:07:42.200Z,2.67
2023-02-28T00:10:10.499Z,3.53
2023-02-28T00:12:37.433Z,2.80
2023-02-28T00:15:06.372Z,4.00
2023-02-28T00:17:32.769Z,3.70
2023-02-28T00:20:04.892Z,3.43
2023-02-28T00:22:31.628Z,3.40
2023-02-28T00:24:57.887Z,3.67
2023-02-28T00:27:24.119Z,3.37
2023-02-28T00:29:50.474Z,3.87
2023-02-28T00:32:19.098Z,3.70
2023-02-28T00:34:45.388Z,3.83
2023-02-28T00:37:12.509Z,3.70
2023-02-28T00:39:39.215Z,3.67
2023-02-28T00:42:06.531Z,3.40
2023-02-28T00:44:33.064Z,3.60
2023-02-28T00:47:00.607Z,3.53
2023-02-28T00:49:28.204Z,3.73
2023-02-28T00:51:55.025Z,3.67
2023-02-28T00:54:21.573Z,3.50
2023-02-28T00:56:47.877Z,3.40
2023-02-28T00:59:14.631Z,3.70
2023-02-28T01:01:41.547Z,3.37
2023-02-28T01:04:08.236Z,3.40
2023-02-28T01:06:36.054Z,3.53
2023-02-28T01:09:02.518Z,3.27
2023-02-28T01:11:28.963Z,3.50
2023-02-28T01:13:55.351Z,3.67
2023-02-28T01:16:21.773Z,3.47
2023-02-28T01:18:48.185Z,3.57
2023-02-28T01:21:16.853Z,3.27
2023-02-28T01:23:43.850Z,3.70
2023-02-28T01:26:13.131Z,3.57
2023-02-28T01:28:39.689Z,3.70
2023-02-28T01:31:06.406Z,3.10
2023-02-28T01:33:32.940Z,3.80
2023-02-28T01:35:59.654Z,3.60
2023-02-28T01:38:25.908Z,4.07
2023-02-28T01:40:53.021Z,3.57
2023-02-28T01:43:23.249Z,3.60
2023-02-28T01:45:49.709Z,3.20
2023-02-28T01:48:16.235Z,3.93
2023-02-28T01:50:45.412Z,3.63
2023-02-28T01:53:15.172Z,3.27
2023-02-28T01:55:42.036Z,3.57
2023-02-28T01:58:09.335Z,3.73
2023-02-28T02:00:35.661Z,3.50
2023-02-28T02:03:06.449Z,3.87
2023-02-28T02:05:33.932Z,3.33
2023-02-28T02:08:04.097Z,3.80
2023-02-28T02:10:34.579Z,3.70
2023-02-28T02:13:11.163Z,3.60
2023-02-28T02:15:42.099Z,4.03
2023-02-28T02:18:15.986Z,4.23
2023-02-28T02:21:09.628Z,4.40
2023-02-28T02:24:19.969Z,4.17
2023-02-28T02:26:56.032Z,3.80
2023-02-28T02:29:36.008Z,4.70
2023-02-28T02:32:29.543Z,4.70
2023-02-28T02:35:01.924Z,4.73
2023-02-28T02:37:32.440Z,3.87
2023-02-28T02:40:04.046Z,5.17
2023-02-28T02:42:37.111Z,5.00
2023-02-28T02:45:07.185Z,5.00
2023-02-28T02:47:33.992Z,4.57
2023-02-28T02:50:05.011Z,4.40
2023-02-28T02:52:35.557Z,4.37
2023-02-28T02:55:03.237Z,4.77
2023-02-28T02:57:34.492Z,4.33
2023-02-28T03:00:01.373Z,4.73
2023-02-28T03:02:34.519Z,4.47
2023-02-28T03:05:04.077Z,5.27
2023-02-28T03:07:30.221Z,5.27
2023-02-28T03:09:57.598Z,4.77
2023-02-28T03:12:29.517Z,4.50
2023-02-28T03:14:58.668Z,4.40
2023-02-28T03:17:34.849Z,4.83
2023-02-28T03:20:08.506Z,4.80
2023-02-28T03:22:49.726Z,4.73
2023-02-28T03:25:26.968Z,4.80
2023-02-28T03:28:01.489Z,4.67
2023-02-28T03:30:31.746Z,4.13
2023-02-28T03:33:00.623Z,4.53
2023-02-28T03:35:32.307Z,4.90
2023-02-28T03:38:02.245Z,4.77
2023-02-28T03:40:33.149Z,4.30
2023-02-28T03:43:02.359Z,4.13
2023-02-28T03:45:30.934Z,4.40
2023-02-28T03:48:01.485Z,4.00
2023-02-28T03:50:32.733Z,3.90
2023-02-28T03:53:04.983Z,4.00
2023-02-28T03:55:33.571Z,4.00
2023-02-28T03:58:04.074Z,4.10
2023-02-28T04:00:33.366Z,3.73
2023-02-28T04:02:59.814Z,4.17
2023-02-28T04:05:26.504Z,4.20
2023-02-28T04:07:54.242Z,4.30
2023-02-28T04:10:20.780Z,4.53
2023-02-28T04:12:47.107Z,4.30
2023-02-28T04:15:13.331Z,4.13
2023-02-28T04:17:39.503Z,4.03
2023-02-28T04:20:09.757Z,4.30
2023-02-28T04:22:36.698Z,4.37
2023-02-28T04:25:04.576Z,3.67
2023-02-28T04:27:32.668Z,3.50
2023-02-28T04:29:59.020Z,4.43
2023-02-28T04:32:25.703Z,3.83
2023-02-28T04:34:51.981Z,3.73
2023-02-28T04:37:18.167Z,3.60
2023-02-28T04:39:44.580Z,3.57
2023-02-28T04:42:12.454Z,3.77
2023-02-28T04:44:38.608Z,3.47
2023-02-28T04:47:04.920Z,3.40
2023-02-28T04:49:31.759Z,3.67
2023-02-28T04:51:58.001Z,3.90
2023-02-28T04:54:24.765Z,3.63
2023-02-28T04:56:51.041Z,4.03
2023-02-28T04:59:18.096Z,3.47
2023-02-28T05:01:47.321Z,3.40
2023-02-28T05:04:13.547Z,3.43
2023-02-28T05:06:39.718Z,3.60
2023-02-28T05:09:05.846Z,3.73
2023-02-28T05:11:35.173Z,3.40
2023-02-28T05:14:01.899Z,3.07
2023-02-28T05:16:28.847Z,3.47
2023-02-28T05:18:55.454Z,3.07
2023-02-28T05:21:25.624Z,3.07
2023-02-28T05:23:51.900Z,2.70
2023-02-28T05:26:18.089Z,2.80
2023-02-28T05:28:44.307Z,3.03
2023-02-28T05:31:11.591Z,2.70
2023-02-28T05:33:38.639Z,3.03
2023-02-28T05:36:08.453Z,2.90
2023-02-28T05:38:35.055Z,2.47
2023-02-28T05:41:06.298Z,2.70
2023-02-28T05:43:32.574Z,2.80
2023-02-28T05:45:58.902Z,2.90
2023-02-28T05:48:26.275Z,2.80
2023-02-28T05:50:53.133Z,3.17
2023-02-28T05:53:19.380Z,2.70
2023-02-28T05:55:45.581Z,2.97
2023-02-28T05:58:11.731Z,2.50
2023-02-28T06:00:38.018Z,2.80
2023-02-28T06:03:04.328Z,2.90
2023-02-28T06:05:30.619Z,2.80
2023-02-28T06:07:57.607Z,3.30
2023-02-28T06:10:23.819Z,3.10
2023-02-28T06:12:50.327Z,3.20
2023-02-28T06:15:17.196Z,3.07
2023-02-28T06:17:44.032Z,2.93
2023-02-28T06:20:12.971Z,3.00
2023-02-28T06:22:39.772Z,2.90
2023-02-28T06:25:07.861Z,3.10
2023-02-28T06:27:34.558Z,3.30
2023-02-28T06:30:00.842Z,3.10
2023-02-28T06:32:27.059Z,2.97
2023-02-28T06:34:53.464Z,2.80
2023-02-28T06:37:19.684Z,2.90
2023-02-28T06:39:45.923Z,3.00
2023-02-28T06:42:12.887Z,2.73
2023-02-28T06:44:39.325Z,3.00
2023-02-28T06:47:09.761Z,3.00
2023-02-28T06:49:36.554Z,2.77
2023-02-28T06:52:03.310Z,2.70
2023-02-28T06:54:29.574Z,2.90
2023-02-28T06:56:55.791Z,2.80
2023-02-28T06:59:22.675Z,3.53
2023-02-28T07:01:48.908Z,2.67
2023-02-28T07:04:15.498Z,2.80
2023-02-28T07:06:41.743Z,2.80
2023-02-28T07:09:08.483Z,2.50
2023-02-28T07:11:34.817Z,3.13
2023-02-28T07:14:00.983Z,2.60
2023-02-28T07:16:27.938Z,2.57
2023-02-28T07:18:54.464Z,2.73
2023-02-28T07:21:20.813Z,2.17
2023-02-28T07:23:50.026Z,2.70
2023-02-28T07:26:17.467Z,2.70
2023-02-28T07:28:44.492Z,2.80
2023-02-28T07:31:11.406Z,2.70
2023-02-28T07:33:38.791Z,2.33
2023-02-28T07:36:07.026Z,2.33
2023-02-28T07:38:34.355Z,2.73
2023-02-28T07:41:00.612Z,2.60
2023-02-28T07:43:26.964Z,2.80
2023-02-28T07:45:53.148Z,2.70
2023-02-28T07:48:19.352Z,2.57
2023-02-28T07:50:55.630Z,2.60
2023-02-28T07:53:22.507Z,2.67
2023-02-28T07:55:49.161Z,2.50
2023-02-28T07:58:15.746Z,2.20
2023-02-28T08:00:42.000Z,2.23
2023-02-28T08:03:09.463Z,2.30
2023-02-28T08:05:39.228Z,2.20
2023-02-28T08:08:06.227Z,2.13
2023-02-28T08:10:32.404Z,2.00
2023-02-28T08:12:58.560Z,2.77
2023-02-28T08:15:24.724Z,2.27
2023-02-28T08:17:51.081Z,2.43
2023-02-28T08:20:17.216Z,2.50
2023-02-28T08:22:45.825Z,2.07
2023-02-28T08:25:12.909Z,2.40
2023-02-28T08:27:39.064Z,2.00
2023-02-28T08:30:06.696Z,2.40
2023-02-28T08:32:33.330Z,2.13
2023-02-28T08:34:59.823Z,2.17
2023-02-28T08:37:26.262Z,1.90
2023-02-28T08:39:55.651Z,2.20
2023-02-28T08:42:23.225Z,1.93
2023-02-28T08:44:49.391Z,2.27
2023-02-28T08:47:15.729Z,2.00
2023-02-28T08:49:42.223Z,2.10
2023-02-28T08:52:08.957Z,2.07
2023-02-28T08:54:36.432Z,1.93
2023-02-28T08:57:03.031Z,2.00
2023-02-28T08:59:29.995Z,1.70
2023-02-28T09:01:56.497Z,2.23
2023-02-28T09:04:25.175Z,2.47
2023-02-28T09:06:51.632Z,1.83
2023-02-28T09:09:17.906Z,2.00
2023-02-28T09:11:44.244Z,1.70
2023-02-28T09:14:10.481Z,1.90
2023-02-28T09:16:38.191Z,1.60
2023-02-28T09:19:04.551Z,1.50
2023-02-28T09:21:31.020Z,1.60
2023-02-28T09:23:57.386Z,1.90
2023-02-28T09:26:25.540Z,1.80
2023-02-28T09:28:54.298Z,1.43
2023-02-28T09:31:23.290Z,1.70
2023-02-28T09:33:50.689Z,1.70
2023-02-28T09:36:18.199Z,1.97
2023-02-28T09:38:46.844Z,1.57
2023-02-28T09:41:15.579Z,1.60
2023-02-28T09:43:45.102Z,1.73
2023-02-28T09:46:20.216Z,1.60
2023-02-28T09:48:48.448Z,2.47
2023-02-28T09:51:28.185Z,1.60
2023-02-28T09:54:01.270Z,1.57
2023-02-28T09:56:34.278Z,1.40
2023-02-28T09:59:02.919Z,1.50
2023-02-28T10:01:34.823Z,1.47
2023-02-28T10:04:04.743Z,1.53
2023-02-28T10:06:36.705Z,1.73
2023-02-28T10:09:05.053Z,1.40
2023-02-28T10:11:33.638Z,1.43
2023-02-28T10:14:02.784Z,1.23
2023-02-28T10:16:32.815Z,1.10
2023-02-28T10:19:03.834Z,1.20
2023-02-28T10:21:34.708Z,1.30
2023-02-28T10:24:05.573Z,1.40
2023-02-28T10:26:33.416Z,2.00
2023-02-28T10:29:00.057Z,1.33
2023-02-28T10:31:26.602Z,1.00
2023-02-28T10:33:52.887Z,1.63
2023-02-28T10:36:21.167Z,1.50
2023-02-28T10:38:49.127Z,1.43
2023-02-28T10:41:17.572Z,1.60
2023-02-28T10:43:45.528Z,1.53
2023-02-28T10:46:15.547Z,1.57
2023-02-28T10:48:44.590Z,1.30
2023-02-28T10:51:12.515Z,1.60
2023-02-28T10:54:00.030Z,1.47
2023-02-28T10:56:28.415Z,1.50
2023-02-28T10:58:56.643Z,1.73
2023-02-28T11:01:25.118Z,1.50
2023-02-28T11:03:52.715Z,1.20
2023-02-28T11:06:21.216Z,1.77
2023-02-28T11:08:50.421Z,1.60
2023-02-28T11:11:17.590Z,1.70
2023-02-28T11:13:46.444Z,1.20
2023-02-28T11:16:14.098Z,1.53
2023-02-28T11:18:43.544Z,1.80
2023-02-28T11:21:11.012Z,1.77
2023-02-28T11:23:41.051Z,1.70
2023-02-28T11:26:09.841Z,1.60
2023-02-28T11:28:38.414Z,1.60
2023-02-28T11:31:15.215Z,1.60
2023-02-28T11:33:45.150Z,1.53
2023-02-28T11:36:14.353Z,1.90
2023-02-28T11:38:41.045Z,2.20
2023-02-28T11:41:23.830Z,1.63
2023-02-28T11:44:04.753Z,1.60
2023-02-28T11:46:35.371Z,1.77
2023-02-28T11:49:13.744Z,1.70
2023-02-28T11:51:47.984Z,1.80
2023-02-28T11:54:28.003Z,1.90
2023-02-28T11:56:56.130Z,2.00
2023-02-28T11:59:38.484Z,1.90
2023-02-28T12:02:20.959Z,2.37
2023-02-28T12:04:56.147Z,1.90
2023-02-28T12:07:28.416Z,1.90
2023-02-28T12:10:00.858Z,1.60
2023-02-28T12:12:39.097Z,1.93
2023-02-28T12:15:30.389Z,2.10
2023-02-28T12:18:10.858Z,1.63
2023-02-28T12:20:41.848Z,1.80
2023-02-28T12:23:22.952Z,1.90
2023-02-28T12:26:00.920Z,1.90
2023-02-28T12:28:31.643Z,1.73
2023-02-28T12:31:01.299Z,2.20
2023-02-28T12:33:33.550Z,1.90
2023-02-28T12:36:02.598Z,1.83
2023-02-28T12:38:31.882Z,1.83
2023-02-28T12:41:01.848Z,1.83
2023-02-28T12:43:31.858Z,1.90
2023-02-28T12:46:00.490Z,1.90
2023-02-28T12:48:31.517Z,2.53
2023-02-28T12:50:58.128Z,2.10
2023-02-28T12:53:28.974Z,1.90
2023-02-28T12:56:06.345Z,2.27
2023-02-28T12:58:35.080Z,1.87
2023-02-28T13:01:39.124Z,2.13
2023-02-28T13:04:21.898Z,1.93
2023-02-28T13:07:00.753Z,2.20
2023-02-28T13:09:27.234Z,2.30
2023-02-28T13:11:54.251Z,2.07
2023-02-28T13:14:24.323Z,2.03
2023-02-28T13:17:02.924Z,1.80
2023-02-28T13:19:31.687Z,2.00
2023-02-28T13:21:58.964Z,1.80
2023-02-28T13:24:41.343Z,2.10
2023-02-28T13:27:39.417Z,1.90
2023-02-28T13:30:43.111Z,2.00
2023-02-28T13:33:23.679Z,2.77
2023-02-28T13:36:07.447Z,2.03
2023-02-28T13:38:38.952Z,2.10
2023-02-28T13:41:41.211Z,1.83
2023-02-28T13:44:09.008Z,1.87
2023-02-28T13:46:37.159Z,2.40
2023-02-28T13:49:26.159Z,2.13
2023-02-28T13:51:53.499Z,2.20
2023-02-28T13:54:27.657Z,2.10
2023-02-28T13:57:02.614Z,2.07
2023-02-28T13:59:33.670Z,2.23
2023-02-28T14:02:26.109Z,2.30
2023-02-28T14:05:01.979Z,2.33
2023-02-28T14:07:35.755Z,2.20
2023-02-28T14:10:05.828Z,2.30
2023-02-28T14:12:52.393Z,2.50
2023-02-28T14:15:56.280Z,2.30
2023-02-28T14:18:28.306Z,2.20
2023-02-28T14:21:10.461Z,2.20
2023-02-28T14:23:50.940Z,2.77
2023-02-28T14:26:30.127Z,2.17
2023-02-28T14:29:10.896Z,2.47
2023-02-28T14:31:39.528Z,2.50
2023-02-28T14:34:21.281Z,2.37
2023-02-28T14:36:47.794Z,2.57
2023-02-28T14:39:16.160Z,2.43
2023-02-28T14:41:43.996Z,2.13
2023-02-28T14:44:17.730Z,2.33
2023-02-28T14:46:45.207Z,2.60
2023-02-28T14:49:15.955Z,2.07
2023-02-28T14:51:42.831Z,2.10
2023-02-28T14:54:15.402Z,2.27
2023-02-28T14:56:41.712Z,2.30
2023-02-28T14:59:26.517Z,2.87
2023-02-28T15:01:53.010Z,2.83
2023-02-28T15:04:23.744Z,2.53
2023-02-28T15:07:08.046Z,2.67
2023-02-28T15:09:34.985Z,2.77
2023-02-28T15:12:01.387Z,2.63
2023-02-28T15:14:28.383Z,2.57
2023-02-28T15:16:58.856Z,2.83
2023-02-28T15:19:27.442Z,2.70
2023-02-28T15:21:59.016Z,2.33
2023-02-28T15:24:32.901Z,2.50
2023-02-28T15:27:04.386Z,2.50
2023-02-28T15:29:34.716Z,2.60
2023-02-28T15:32:03.520Z,2.53
2023-02-28T15:34:42.132Z,2.60
2023-02-28T15:37:44.510Z,2.60
2023-02-28T15:40:16.965Z,2.43
2023-02-28T15:42:59.218Z,2.47
2023-02-28T15:45:32.882Z,2.57
2023-02-28T15:48:02.656Z,2.50
2023-02-28T15:50:34.925Z,2.83
2023-02-28T15:53:01.447Z,2.57
2023-02-28T15:55:29.074Z,2.93
2023-02-28T15:57:58.883Z,2.60
2023-02-28T16:00:27.468Z,2.13
2023-02-28T16:02:53.917Z,2.73
2023-02-28T16:05:28.170Z,2.60
2023-02-28T16:07:55.228Z,2.80
2023-02-28T16:10:22.427Z,2.77
2023-02-28T16:12:48.646Z,2.50
2023-02-28T16:15:20.584Z,3.00
2023-02-28T16:17:47.212Z,2.77
2023-02-28T16:20:14.875Z,2.77
2023-02-28T16:22:42.244Z,2.77
2023-02-28T16:25:11.409Z,2.80
2023-02-28T16:27:38.349Z,2.87
2023-02-28T16:30:06.645Z,2.70
2023-02-28T16:32:35.835Z,2.83
2023-02-28T16:35:02.057Z,2.90
2023-02-28T16:37:28.560Z,3.10
2023-02-28T16:39:56.393Z,2.80
2023-02-28T16:42:25.099Z,3.07
2023-02-28T16:44:51.593Z,2.93
2023-02-28T16:47:18.043Z,3.10
2023-02-28T16:49:45.043Z,3.00
2023-02-28T16:52:12.269Z,2.93
2023-02-28T16:54:38.752Z,3.30
2023-02-28T16:57:05.643Z,3.00
2023-02-28T16:59:32.516Z,2.83
2023-02-28T17:01:59.202Z,3.13
2023-02-28T17:04:25.921Z,3.37
2023-02-28T17:06:53.002Z,3.47
2023-02-28T17:09:22.956Z,3.60
2023-02-28T17:11:50.680Z,3.13
2023-02-28T17:14:17.002Z,3.40
2023-02-28T17:16:43.449Z,3.27
2023-02-28T17:19:12.278Z,3.30
2023-02-28T17:21:38.813Z,3.70
2023-02-28T17:24:07.128Z,3.40
2023-02-28T17:26:33.590Z,4.33
2023-02-28T17:29:00.076Z,3.47
2023-02-28T17:31:27.439Z,3.27
2023-02-28T17:33:54.873Z,3.60
2023-02-28T17:36:23.519Z,3.37
2023-02-28T17:38:50.227Z,3.70
2023-02-28T17:41:17.246Z,3.07
2023-02-28T17:43:43.437Z,3.43
2023-02-28T17:46:16.489Z,3.40
2023-02-28T17:48:42.750Z,3.20
2023-02-28T17:51:10.596Z,3.30
2023-02-28T17:53:36.737Z,3.67
2023-02-28T17:56:02.887Z,3.67
2023-02-28T17:58:31.239Z,3.53
2023-02-28T18:00:57.534Z,3.13
2023-02-28T18:03:25.450Z,4.03
2023-02-28T18:05:51.700Z,3.47
2023-02-28T18:08:18.408Z,4.07
2023-02-28T18:10:45.099Z,3.93
2023-02-28T18:13:12.792Z,4.03
2023-02-28T18:15:40.660Z,3.87
2023-02-28T18:18:07.223Z,4.30
2023-02-28T18:20:33.579Z,3.90
2023-02-28T18:22:59.722Z,4.33
2023-02-28T18:25:26.180Z,4.63
2023-02-28T18:27:57.548Z,4.00
2023-02-28T18:30:24.600Z,4.20
2023-02-28T18:32:51.484Z,4.30
2023-02-28T18:35:34.088Z,4.60
2023-02-28T18:38:05.338Z,3.60
2023-02-28T18:40:31.780Z,3.93
2023-02-28T18:42:57.983Z,3.70
2023-02-28T18:45:24.230Z,3.27
2023-02-28T18:47:51.406Z,3.20
2023-02-28T18:50:18.139Z,7.30
2023-02-28T18:52:44.339Z,4.67
2023-02-28T18:55:11.647Z,4.77
2023-02-28T18:57:37.832Z,4.30
2023-02-28T19:00:04.851Z,4.33
2023-02-28T19:02:31.068Z,4.37
2023-02-28T19:04:57.993Z,3.87
2023-02-28T19:07:24.270Z,4.00
2023-02-28T19:09:50.504Z,4.30
2023-02-28T19:12:18.515Z,4.30
2023-02-28T19:14:45.972Z,4.40
2023-02-28T19:17:13.690Z,3.80
2023-02-28T19:19:39.952Z,3.80
2023-02-28T19:22:06.884Z,3.63
2023-02-28T19:24:33.109Z,4.03
2023-02-28T19:26:59.431Z,3.97
2023-02-28T19:29:26.050Z,3.97
2023-02-28T19:31:52.825Z,3.77
2023-02-28T19:34:19.408Z,4.20
2023-02-28T19:36:45.752Z,3.53
2023-02-28T19:39:12.669Z,3.93
2023-02-28T19:41:38.915Z,4.27
2023-02-28T19:44:05.094Z,4.13
2023-02-28T19:46:31.451Z,7.40
2023-02-28T19:48:57.887Z,10.67
2023-02-28T19:51:24.312Z,22.37
2023-02-28T19:53:50.777Z,11.90
2023-02-28T19:56:17.618Z,10.43
2023-02-28T19:58:43.989Z,8.53
2023-02-28T20:01:11.813Z,7.23
2023-02-28T20:03:38.078Z,4.43
2023-02-28T20:06:06.763Z,6.60
2023-02-28T20:08:33.462Z,4.13
2023-02-28T20:11:02.794Z,4.73
2023-02-28T20:13:29.885Z,4.03
2023-02-28T20:15:59.475Z,4.90
2023-02-28T20:18:25.778Z,4.20
2023-02-28T20:20:52.038Z,4.10
2023-02-28T20:23:18.349Z,4.23
2023-02-28T20:25:44.640Z,4.77
2023-02-28T20:28:10.836Z,4.87
2023-02-28T20:30:41.075Z,4.40
2023-02-28T20:33:07.462Z,4.70
2023-02-28T20:35:33.791Z,4.33
2023-02-28T20:38:00.174Z,4.23
2023-02-28T20:40:26.369Z,4.17
2023-02-28T20:42:53.949Z,4.17
2023-02-28T20:45:20.302Z,4.33
2023-02-28T20:47:47.216Z,3.93
2023-02-28T20:50:13.456Z,3.83
2023-02-28T20:52:39.641Z,3.93
2023-02-28T20:55:07.151Z,3.80
2023-02-28T20:57:33.474Z,4.57
2023-02-28T20:59:59.652Z,4.50
2023-02-28T21:02:26.093Z,4.80
2023-02-28T21:04:53.043Z,5.13
2023-02-28T21:07:19.322Z,5.40
2023-02-28T21:09:45.692Z,5.03
2023-02-28T21:12:11.921Z,4.80
2023-02-28T21:14:38.193Z,3.97
2023-02-28T21:17:07.876Z,4.77
2023-02-28T21:19:34.111Z,4.60
2023-02-28T21:22:01.080Z,4.50
2023-02-28T21:24:27.401Z,4.23
2023-02-28T21:26:56.166Z,4.80
2023-02-28T21:29:22.410Z,4.50
2023-02-28T21:31:50.013Z,4.87
2023-02-28T21:34:17.442Z,4.87
2023-02-28T21:36:44.925Z,4.60
2023-02-28T22:07:54.412Z,4.80
2023-02-28T23:08:33.319Z,4.87
2023-02-28T23:56:53.336Z,5.50
